Agios Georgios I — SX9857 — position and weather

sailwx.info

Track history (hours):
 
Tides and Currents Weather Stations Pressure Air Temp Water Temp Dewpoint Dewpoint Depression Visibility Wind Speed Wind Dir Waves Ship Positions

Agios Georgios I

Last reported at 2017-Oct-22 15:30 UTC. Time now 2017-Oct-22 15:49 UTC.
Position N 37°37' E 025°37'.

Length 59 m; draft 5 m.

Type: Ship (hazmat cat B). MMSI: 239912000.

Date/timePositionNaut miles runAvg speedWind from/ knotsBaromVisibWave heightAir tempDewpointWater temp
2017-Oct-22 15:30N 37°37' E 025°37'5 9.1
2017-Oct-22 15:00N 37°38' E 025°42'5 9.3
2017-Oct-22 14:30N 37°39' E 025°48'  
2017-Oct-18 14:00N 37°55' E 025°18'4 8.7
2017-Oct-18 13:30N 37°52' E 025°14'4 8.5
2017-Oct-18 13:00N 37°49' E 025°10'4 8.2
2017-Oct-18 12:28N 37°46' E 025°06'5 8.0
2017-Oct-18 11:52N 37°43' E 025°01'4 9.2
2017-Oct-18 11:29N 37°41' E 024°58'4 9.0
2017-Oct-18 11:00N 37°41' E 024°53'4 0.2
2017-Oct-17 12:22N 37°44' E 024°50'3 9.3
2017-Oct-17 12:00N 37°42' E 024°53'9 8.1
2017-Oct-17 10:55N 37°35' E 025°00'3 7.5
2017-Oct-17 10:30N 37°34' E 025°04'4 7.9
2017-Oct-17 10:00N 37°32' E 025°08'1 1.5
2017-Oct-17 09:30N 37°32' E 025°09'0 0.0
2017-Oct-17 09:00N 37°32' E 025°09'0 0.0
2017-Oct-17 08:30N 37°32' E 025°09'0 0.0
2017-Oct-17 08:00N 37°32' E 025°09'0 0.0
2017-Oct-17 07:30N 37°32' E 025°09'0 0.0
2017-Oct-17 07:00N 37°32' E 025°09'0 0.0
2017-Oct-17 06:30N 37°32' E 025°09'0 0.0
2017-Oct-17 06:00N 37°32' E 025°09'0 0.0
2017-Oct-17 05:30N 37°32' E 025°09'0 0.0
2017-Oct-17 05:00N 37°32' E 025°09'3 6.5
2017-Oct-17 04:30N 37°30' E 025°06'5 8.0
2017-Oct-17 03:53N 37°28' E 025°01'3 8.0
2017-Oct-17 03:30N 37°26' E 024°57'1 1.9
2017-Oct-17 03:00N 37°26' E 024°56'0 0.0
2017-Oct-17 02:30N 37°26' E 024°56'0 0.0
2017-Oct-17 02:00N 37°26' E 024°56'0 0.0
2017-Oct-17 01:29N 37°26' E 024°56'0 0.0
2017-Oct-17 01:00N 37°26' E 024°56'0 0.0
2017-Oct-17 00:30N 37°26' E 024°56'0 0.0
2017-Oct-17 00:00N 37°26' E 024°56'0 0.0
2017-Oct-16 23:30N 37°26' E 024°56'0 0.0
2017-Oct-16 23:00N 37°26' E 024°56'0 0.0
2017-Oct-16 22:30N 37°26' E 024°56'0 0.0
2017-Oct-16 22:00N 37°26' E 024°56'0 0.0
2017-Oct-16 21:30N 37°26' E 024°56'0 0.0
2017-Oct-16 20:59N 37°26' E 024°56'0 0.0
2017-Oct-16 20:30N 37°26' E 024°56'0 0.0
2017-Oct-16 20:00N 37°26' E 024°56'0 0.0
2017-Oct-16 19:30N 37°26' E 024°56'0 0.0
2017-Oct-16 19:00N 37°26' E 024°56'0 0.0
2017-Oct-16 18:30N 37°26' E 024°56'0 0.0
2017-Oct-16 18:00N 37°26' E 024°56'0 0.0
2017-Oct-16 17:30N 37°26' E 024°56'0 0.0
2017-Oct-16 17:00N 37°26' E 024°56'0 0.0
2017-Oct-16 16:30N 37°26' E 024°56'0 0.0
2017-Oct-16 16:00N 37°26' E 024°56'0 0.0
2017-Oct-16 15:30N 37°26' E 024°56'0 0.0
2017-Oct-16 14:59N 37°26' E 024°56'0 0.0
2017-Oct-16 14:00N 37°26' E 024°56'0 0.0
2017-Oct-16 13:30N 37°26' E 024°56'0 0.0
2017-Oct-16 13:00N 37°26' E 024°56'0 0.0
2017-Oct-16 12:30N 37°26' E 024°56'0 0.0
2017-Oct-16 11:59N 37°26' E 024°56'0 0.0
2017-Oct-16 11:30N 37°26' E 024°56'0 0.0
2017-Oct-16 11:00N 37°26' E 024°56'0 0.0
2017-Oct-16 10:30N 37°26' E 024°56'0 0.0
2017-Oct-16 10:00N 37°26' E 024°56'0 0.0
2017-Oct-16 09:30N 37°26' E 024°56'0 0.0
2017-Oct-16 09:00N 37°26' E 024°56'0 0.0
2017-Oct-16 08:30N 37°26' E 024°56'0 0.0
2017-Oct-16 08:00N 37°26' E 024°56'0 0.0
2017-Oct-16 07:30N 37°26' E 024°56'0 0.0
2017-Oct-16 07:00N 37°26' E 024°56'0 0.0
2017-Oct-16 06:30N 37°26' E 024°56'0 0.0
2017-Oct-16 06:00N 37°26' E 024°56'0 0.6
2017-Oct-16 05:30N 37°26' E 024°57'1 2.9
2017-Oct-16 05:00N 37°25' E 024°58'0 0.0
2017-Oct-16 04:30N 37°25' E 024°58'0 0.0
2017-Oct-16 04:00N 37°25' E 024°58'0 0.0
2017-Oct-16 03:31N 37°25' E 024°58'0 0.0
2017-Oct-16 03:00N 37°25' E 024°58'0 0.0
2017-Oct-16 02:30N 37°25' E 024°58'0 0.0
2017-Oct-16 02:00N 37°25' E 024°58'0 0.0
2017-Oct-16 01:30N 37°25' E 024°58'0 0.0
2017-Oct-16 01:00N 37°25' E 024°58'0 0.0
2017-Oct-16 00:30N 37°25' E 024°58'0 0.0
2017-Oct-16 00:00N 37°25' E 024°58'0 0.0
2017-Oct-15 23:30N 37°25' E 024°58'0 0.0
2017-Oct-15 23:00N 37°25' E 024°58'0 0.0
2017-Oct-15 22:30N 37°25' E 024°58'0 0.0
2017-Oct-15 22:00N 37°25' E 024°58'0 0.1
2017-Oct-15 21:30N 37°25' E 024°58'3 6.3
2017-Oct-15 21:00N 37°23' E 025°01'7 7.8
2017-Oct-15 20:09N 37°18' E 025°07'1 7.6
2017-Oct-15 20:00N 37°18' E 025°08'4 8.0
2017-Oct-15 19:30N 37°15' E 025°12'4 7.4
2017-Oct-15 19:00N 37°12' E 025°15'4 7.4
2017-Oct-15 18:30N 37°10' E 025°18'3 7.0
2017-Oct-15 18:00N 37°07' E 025°21'1 2.4
2017-Oct-15 17:30N 37°06' E 025°22'0 0.0
2017-Oct-15 17:00N 37°06' E 025°22'0 0.0
2017-Oct-15 16:30N 37°06' E 025°22'0 0.0
2017-Oct-15 16:00N 37°06' E 025°22'0 0.0
2017-Oct-15 15:30N 37°06' E 025°22'1 1.4
2017-Oct-15 15:00N 37°06' E 025°22'6 5.9
2017-Oct-15 14:00N 37°10' E 025°16'3 5.6
2017-Oct-15 13:30N 37°10' E 025°12'3 6.0
2017-Oct-15 12:58N 37°08' E 025°09'3 6.2
2017-Oct-15 12:28N 37°05' E 025°08'1 0.1
2017-Oct-14 23:07N 37°05' E 025°09'1 6.9
2017-Oct-14 22:59N 37°05' E 025°08'4 8.1
2017-Oct-14 22:30N 37°08' E 025°04'4 8.2
2017-Oct-14 22:00N 37°10' E 024°59'4 7.4
2017-Oct-14 21:30N 37°12' E 024°56'4 7.4
2017-Oct-14 21:00N 37°14' E 024°52'4 7.7
2017-Oct-14 20:30N 37°17' E 024°48'56 8.0
2017-Oct-14 13:33N 37°39' E 023°44'1 8.6
2017-Oct-14 13:27N 37°39' E 023°43'4 9.1
2017-Oct-14 13:00N 37°43' E 023°41'5 9.3
2017-Oct-14 12:30N 37°47' E 023°38'5 9.1
2017-Oct-14 12:00N 37°51' E 023°36'5 9.3
2017-Oct-14 11:31N 37°56' E 023°35'2 3.2
2017-Oct-14 11:00N 37°58' E 023°35'0 0.0
2017-Oct-14 10:30N 37°58' E 023°35'0 0.0
2017-Oct-14 10:00N 37°58' E 023°35'0 0.0
2017-Oct-14 09:30N 37°58' E 023°35'0 0.0
2017-Oct-14 09:00N 37°58' E 023°35'0 0.0
2017-Oct-14 08:30N 37°58' E 023°35'0 0.0
2017-Oct-14 08:00N 37°58' E 023°35'0 0.0
2017-Oct-14 07:30N 37°58' E 023°35'0 0.0
2017-Oct-14 07:00N 37°58' E 023°35'0 0.0
2017-Oct-14 06:30N 37°58' E 023°35'0 0.0
2017-Oct-14 06:00N 37°58' E 023°35'0 0.0
2017-Oct-14 05:30N 37°58' E 023°35'0 0.0
2017-Oct-14 05:00N 37°58' E 023°35'0 0.0
2017-Oct-14 04:30N 37°58' E 023°35'0 0.0
2017-Oct-14 04:00N 37°58' E 023°35'0 0.0
2017-Oct-14 03:31N 37°58' E 023°35'0 0.0
2017-Oct-14 03:00N 37°58' E 023°35'0 0.0
2017-Oct-14 02:30N 37°58' E 023°35'0 0.0
2017-Oct-14 02:00N 37°58' E 023°35'0 0.0
2017-Oct-14 01:30N 37°58' E 023°35'0 0.0
2017-Oct-14 01:00N 37°58' E 023°35'0 0.0
2017-Oct-14 00:30N 37°58' E 023°35'0 0.0
2017-Oct-14 00:00N 37°58' E 023°35'0 0.0
2017-Oct-13 23:30N 37°58' E 023°35'0 0.0
2017-Oct-13 23:00N 37°58' E 023°35'0 0.0
2017-Oct-13 22:30N 37°58' E 023°35'0 0.0
2017-Oct-13 22:00N 37°58' E 023°35'0 0.0
2017-Oct-13 21:30N 37°58' E 023°35'0 0.0
2017-Oct-13 21:00N 37°58' E 023°35'0 0.0
2017-Oct-13 20:30N 37°58' E 023°35'0 0.0
2017-Oct-13 20:00N 37°58' E 023°35'0 0.0
2017-Oct-13 19:30N 37°58' E 023°35'0 0.0
2017-Oct-13 19:00N 37°58' E 023°35'0 0.0
2017-Oct-13 18:31N 37°58' E 023°35'0 0.0
2017-Oct-13 18:00N 37°58' E 023°35'0 0.8
2017-Oct-13 17:30N 37°57' E 023°34'3 6.0
2017-Oct-13 17:00N 37°54' E 023°34'4 8.4
2017-Oct-13 16:30N 37°51' E 023°32'4 8.4
2017-Oct-13 16:01N 37°50' E 023°27'4 8.8
2017-Oct-13 15:30N 37°51' E 023°21'4 8.8
2017-Oct-13 15:00N 37°52' E 023°16'5 9.1
2017-Oct-13 14:30N 37°54' E 023°10'4 8.1
2017-Oct-13 14:01N 37°55' E 023°05'0 0.1
2017-Oct-13 13:31N 37°55' E 023°05'0 0.0
2017-Oct-13 13:00N 37°55' E 023°05'0 0.0
2017-Oct-13 12:30N 37°55' E 023°05'0 0.0
2017-Oct-13 12:00N 37°55' E 023°05'0 0.0
2017-Oct-13 11:30N 37°55' E 023°05'0 0.0
2017-Oct-13 11:00N 37°55' E 023°05'0 0.0
2017-Oct-13 10:30N 37°55' E 023°05'0 0.0
2017-Oct-13 10:01N 37°55' E 023°05'0 0.0
2017-Oct-13 09:30N 37°55' E 023°05'0 0.0
2017-Oct-13 09:00N 37°55' E 023°05'0 0.0
2017-Oct-13 08:30N 37°55' E 023°05'0 0.0
2017-Oct-13 08:00N 37°55' E 023°05'0 0.0
2017-Oct-13 07:30N 37°55' E 023°05'0 0.0
2017-Oct-13 07:00N 37°55' E 023°05'0 0.0
2017-Oct-13 06:30N 37°55' E 023°05'0 0.0
2017-Oct-13 06:00N 37°55' E 023°05'0 0.0
2017-Oct-13 05:31N 37°55' E 023°05'0 0.0
2017-Oct-13 05:00N 37°55' E 023°05'0 0.0
2017-Oct-13 04:30N 37°55' E 023°05'0 0.0
2017-Oct-13 04:00N 37°55' E 023°05'0 0.0
2017-Oct-13 03:30N 37°55' E 023°05'0 0.0
2017-Oct-13 03:00N 37°55' E 023°05'0 0.0
2017-Oct-13 02:30N 37°55' E 023°05'0 0.0
2017-Oct-13 02:00N 37°55' E 023°05'0 0.0
2017-Oct-13 01:30N 37°55' E 023°05'0 0.0
2017-Oct-13 01:00N 37°55' E 023°05'0 0.0
2017-Oct-13 00:30N 37°55' E 023°05'0 0.0
2017-Oct-13 00:00N 37°55' E 023°05'0 0.0
2017-Oct-12 23:30N 37°55' E 023°05'0 0.0
2017-Oct-12 23:00N 37°55' E 023°05'0 0.0
2017-Oct-12 22:30N 37°55' E 023°05'1 1.6
2017-Oct-12 22:00N 37°55' E 023°06'4 8.2
2017-Oct-12 21:30N 37°54' E 023°11'4 8.6
2017-Oct-12 21:00N 37°53' E 023°16'4 8.9
2017-Oct-12 20:31N 37°52' E 023°22'4 8.9
2017-Oct-12 20:00N 37°51' E 023°27'4 7.9
2017-Oct-12 19:30N 37°51' E 023°32'4 8.9
2017-Oct-12 19:01N 37°55' E 023°34'2 4.8
2017-Oct-12 18:30N 37°58' E 023°34'0 0.0
2017-Oct-12 18:00N 37°58' E 023°34'0 0.0
2017-Oct-12 17:30N 37°58' E 023°34'0 0.0
2017-Oct-12 17:00N 37°58' E 023°34'0 0.0
2017-Oct-12 16:30N 37°58' E 023°34'0 0.0
2017-Oct-12 16:00N 37°58' E 023°34'0 0.0
2017-Oct-12 15:30N 37°58' E 023°34'  
Track history (hours):
 
Tides and Currents Weather Stations Pressure Air Temp Water Temp Dewpoint Dewpoint Depression Visibility Wind Speed Wind Dir Waves Ship Positions

Agios Georgios I

Last reported at 2017-Oct-22 15:30 UTC. Time now 2017-Oct-22 15:49 UTC.
Position N 37°37' E 025°37'.

Length 59 m; draft 5 m.

Type: Ship (hazmat cat B). MMSI: 239912000.

Date/timePositionNaut miles runAvg speedWind from/ knotsBaromVisibWave heightAir tempDewpointWater temp
2017-Oct-22 15:30N 37°37' E 025°37'5 9.1
2017-Oct-22 15:00N 37°38' E 025°42'5 9.3
2017-Oct-22 14:30N 37°39' E 025°48'  
2017-Oct-18 14:00N 37°55' E 025°18'4 8.7
2017-Oct-18 13:30N 37°52' E 025°14'4 8.5
2017-Oct-18 13:00N 37°49' E 025°10'4 8.2
2017-Oct-18 12:28N 37°46' E 025°06'5 8.0
2017-Oct-18 11:52N 37°43' E 025°01'4 9.2
2017-Oct-18 11:29N 37°41' E 024°58'4 9.0
2017-Oct-18 11:00N 37°41' E 024°53'4 0.2
2017-Oct-17 12:22N 37°44' E 024°50'3 9.3
2017-Oct-17 12:00N 37°42' E 024°53'9 8.1
2017-Oct-17 10:55N 37°35' E 025°00'3 7.5
2017-Oct-17 10:30N 37°34' E 025°04'4 7.9
2017-Oct-17 10:00N 37°32' E 025°08'1 1.5
2017-Oct-17 09:30N 37°32' E 025°09'0 0.0
2017-Oct-17 09:00N 37°32' E 025°09'0 0.0
2017-Oct-17 08:30N 37°32' E 025°09'0 0.0
2017-Oct-17 08:00N 37°32' E 025°09'0 0.0
2017-Oct-17 07:30N 37°32' E 025°09'0 0.0
2017-Oct-17 07:00N 37°32' E 025°09'0 0.0
2017-Oct-17 06:30N 37°32' E 025°09'0 0.0
2017-Oct-17 06:00N 37°32' E 025°09'0 0.0
2017-Oct-17 05:30N 37°32' E 025°09'0 0.0
2017-Oct-17 05:00N 37°32' E 025°09'3 6.5
2017-Oct-17 04:30N 37°30' E 025°06'5 8.0
2017-Oct-17 03:53N 37°28' E 025°01'3 8.0
2017-Oct-17 03:30N 37°26' E 024°57'1 1.9
2017-Oct-17 03:00N 37°26' E 024°56'0 0.0
2017-Oct-17 02:30N 37°26' E 024°56'0 0.0
2017-Oct-17 02:00N 37°26' E 024°56'0 0.0
2017-Oct-17 01:29N 37°26' E 024°56'0 0.0
2017-Oct-17 01:00N 37°26' E 024°56'0 0.0
2017-Oct-17 00:30N 37°26' E 024°56'0 0.0
2017-Oct-17 00:00N 37°26' E 024°56'0 0.0
2017-Oct-16 23:30N 37°26' E 024°56'0 0.0
2017-Oct-16 23:00N 37°26' E 024°56'0 0.0
2017-Oct-16 22:30N 37°26' E 024°56'0 0.0
2017-Oct-16 22:00N 37°26' E 024°56'0 0.0
2017-Oct-16 21:30N 37°26' E 024°56'0 0.0
2017-Oct-16 20:59N 37°26' E 024°56'0 0.0
2017-Oct-16 20:30N 37°26' E 024°56'0 0.0
2017-Oct-16 20:00N 37°26' E 024°56'0 0.0
2017-Oct-16 19:30N 37°26' E 024°56'0 0.0
2017-Oct-16 19:00N 37°26' E 024°56'0 0.0
2017-Oct-16 18:30N 37°26' E 024°56'0 0.0
2017-Oct-16 18:00N 37°26' E 024°56'0 0.0
2017-Oct-16 17:30N 37°26' E 024°56'0 0.0
2017-Oct-16 17:00N 37°26' E 024°56'0 0.0
2017-Oct-16 16:30N 37°26' E 024°56'0 0.0
2017-Oct-16 16:00N 37°26' E 024°56'0 0.0
2017-Oct-16 15:30N 37°26' E 024°56'0 0.0
2017-Oct-16 14:59N 37°26' E 024°56'0 0.0
2017-Oct-16 14:00N 37°26' E 024°56'0 0.0
2017-Oct-16 13:30N 37°26' E 024°56'0 0.0
2017-Oct-16 13:00N 37°26' E 024°56'0 0.0
2017-Oct-16 12:30N 37°26' E 024°56'0 0.0
2017-Oct-16 11:59N 37°26' E 024°56'0 0.0
2017-Oct-16 11:30N 37°26' E 024°56'0 0.0
2017-Oct-16 11:00N 37°26' E 024°56'0 0.0
2017-Oct-16 10:30N 37°26' E 024°56'0 0.0
2017-Oct-16 10:00N 37°26' E 024°56'0 0.0
2017-Oct-16 09:30N 37°26' E 024°56'0 0.0
2017-Oct-16 09:00N 37°26' E 024°56'0 0.0
2017-Oct-16 08:30N 37°26' E 024°56'0 0.0
2017-Oct-16 08:00N 37°26' E 024°56'0 0.0
2017-Oct-16 07:30N 37°26' E 024°56'0 0.0
2017-Oct-16 07:00N 37°26' E 024°56'0 0.0
2017-Oct-16 06:30N 37°26' E 024°56'0 0.0
2017-Oct-16 06:00N 37°26' E 024°56'0 0.6
2017-Oct-16 05:30N 37°26' E 024°57'1 2.9
2017-Oct-16 05:00N 37°25' E 024°58'0 0.0
2017-Oct-16 04:30N 37°25' E 024°58'0 0.0
2017-Oct-16 04:00N 37°25' E 024°58'0 0.0
2017-Oct-16 03:31N 37°25' E 024°58'0 0.0
2017-Oct-16 03:00N 37°25' E 024°58'0 0.0
2017-Oct-16 02:30N 37°25' E 024°58'0 0.0
2017-Oct-16 02:00N 37°25' E 024°58'0 0.0
2017-Oct-16 01:30N 37°25' E 024°58'0 0.0
2017-Oct-16 01:00N 37°25' E 024°58'0 0.0
2017-Oct-16 00:30N 37°25' E 024°58'0 0.0
2017-Oct-16 00:00N 37°25' E 024°58'0 0.0
2017-Oct-15 23:30N 37°25' E 024°58'0 0.0
2017-Oct-15 23:00N 37°25' E 024°58'0 0.0
2017-Oct-15 22:30N 37°25' E 024°58'0 0.0
2017-Oct-15 22:00N 37°25' E 024°58'0 0.1
2017-Oct-15 21:30N 37°25' E 024°58'3 6.3
2017-Oct-15 21:00N 37°23' E 025°01'7 7.8
2017-Oct-15 20:09N 37°18' E 025°07'1 7.6
2017-Oct-15 20:00N 37°18' E 025°08'4 8.0
2017-Oct-15 19:30N 37°15' E 025°12'4 7.4
2017-Oct-15 19:00N 37°12' E 025°15'4 7.4
2017-Oct-15 18:30N 37°10' E 025°18'3 7.0
2017-Oct-15 18:00N 37°07' E 025°21'1 2.4
2017-Oct-15 17:30N 37°06' E 025°22'0 0.0
2017-Oct-15 17:00N 37°06' E 025°22'0 0.0
2017-Oct-15 16:30N 37°06' E 025°22'0 0.0
2017-Oct-15 16:00N 37°06' E 025°22'0 0.0
2017-Oct-15 15:30N 37°06' E 025°22'1 1.4
2017-Oct-15 15:00N 37°06' E 025°22'6 5.9
2017-Oct-15 14:00N 37°10' E 025°16'3 5.6
2017-Oct-15 13:30N 37°10' E 025°12'3 6.0
2017-Oct-15 12:58N 37°08' E 025°09'3 6.2
2017-Oct-15 12:28N 37°05' E 025°08'1 0.1
2017-Oct-14 23:07N 37°05' E 025°09'1 6.9
2017-Oct-14 22:59N 37°05' E 025°08'4 8.1
2017-Oct-14 22:30N 37°08' E 025°04'4 8.2
2017-Oct-14 22:00N 37°10' E 024°59'4 7.4
2017-Oct-14 21:30N 37°12' E 024°56'4 7.4
2017-Oct-14 21:00N 37°14' E 024°52'4 7.7
2017-Oct-14 20:30N 37°17' E 024°48'56 8.0
2017-Oct-14 13:33N 37°39' E 023°44'1 8.6
2017-Oct-14 13:27N 37°39' E 023°43'4 9.1
2017-Oct-14 13:00N 37°43' E 023°41'5 9.3
2017-Oct-14 12:30N 37°47' E 023°38'5 9.1
2017-Oct-14 12:00N 37°51' E 023°36'5 9.3
2017-Oct-14 11:31N 37°56' E 023°35'2 3.2
2017-Oct-14 11:00N 37°58' E 023°35'0 0.0
2017-Oct-14 10:30N 37°58' E 023°35'0 0.0
2017-Oct-14 10:00N 37°58' E 023°35'0 0.0
2017-Oct-14 09:30N 37°58' E 023°35'0 0.0
2017-Oct-14 09:00N 37°58' E 023°35'0 0.0
2017-Oct-14 08:30N 37°58' E 023°35'0 0.0
2017-Oct-14 08:00N 37°58' E 023°35'0 0.0
2017-Oct-14 07:30N 37°58' E 023°35'0 0.0
2017-Oct-14 07:00N 37°58' E 023°35'0 0.0
2017-Oct-14 06:30N 37°58' E 023°35'0 0.0
2017-Oct-14 06:00N 37°58' E 023°35'0 0.0
2017-Oct-14 05:30N 37°58' E 023°35'0 0.0
2017-Oct-14 05:00N 37°58' E 023°35'0 0.0
2017-Oct-14 04:30N 37°58' E 023°35'0 0.0
2017-Oct-14 04:00N 37°58' E 023°35'0 0.0
2017-Oct-14 03:31N 37°58' E 023°35'0 0.0
2017-Oct-14 03:00N 37°58' E 023°35'0 0.0
2017-Oct-14 02:30N 37°58' E 023°35'0 0.0
2017-Oct-14 02:00N 37°58' E 023°35'0 0.0
2017-Oct-14 01:30N 37°58' E 023°35'0 0.0
2017-Oct-14 01:00N 37°58' E 023°35'0 0.0
2017-Oct-14 00:30N 37°58' E 023°35'0 0.0
2017-Oct-14 00:00N 37°58' E 023°35'0 0.0
2017-Oct-13 23:30N 37°58' E 023°35'0 0.0
2017-Oct-13 23:00N 37°58' E 023°35'0 0.0
2017-Oct-13 22:30N 37°58' E 023°35'0 0.0
2017-Oct-13 22:00N 37°58' E 023°35'0 0.0
2017-Oct-13 21:30N 37°58' E 023°35'0 0.0
2017-Oct-13 21:00N 37°58' E 023°35'0 0.0
2017-Oct-13 20:30N 37°58' E 023°35'0 0.0
2017-Oct-13 20:00N 37°58' E 023°35'0 0.0
2017-Oct-13 19:30N 37°58' E 023°35'0 0.0
2017-Oct-13 19:00N 37°58' E 023°35'0 0.0
2017-Oct-13 18:31N 37°58' E 023°35'0 0.0
2017-Oct-13 18:00N 37°58' E 023°35'0 0.8
2017-Oct-13 17:30N 37°57' E 023°34'3 6.0
2017-Oct-13 17:00N 37°54' E 023°34'4 8.4
2017-Oct-13 16:30N 37°51' E 023°32'4 8.4
2017-Oct-13 16:01N 37°50' E 023°27'4 8.8
2017-Oct-13 15:30N 37°51' E 023°21'4 8.8
2017-Oct-13 15:00N 37°52' E 023°16'5 9.1
2017-Oct-13 14:30N 37°54' E 023°10'4 8.1
2017-Oct-13 14:01N 37°55' E 023°05'0 0.1
2017-Oct-13 13:31N 37°55' E 023°05'0 0.0
2017-Oct-13 13:00N 37°55' E 023°05'0 0.0
2017-Oct-13 12:30N 37°55' E 023°05'0 0.0
2017-Oct-13 12:00N 37°55' E 023°05'0 0.0
2017-Oct-13 11:30N 37°55' E 023°05'0 0.0
2017-Oct-13 11:00N 37°55' E 023°05'0 0.0
2017-Oct-13 10:30N 37°55' E 023°05'0 0.0
2017-Oct-13 10:01N 37°55' E 023°05'0 0.0
2017-Oct-13 09:30N 37°55' E 023°05'0 0.0
2017-Oct-13 09:00N 37°55' E 023°05'0 0.0
2017-Oct-13 08:30N 37°55' E 023°05'0 0.0
2017-Oct-13 08:00N 37°55' E 023°05'0 0.0
2017-Oct-13 07:30N 37°55' E 023°05'0 0.0
2017-Oct-13 07:00N 37°55' E 023°05'0 0.0
2017-Oct-13 06:30N 37°55' E 023°05'0 0.0
2017-Oct-13 06:00N 37°55' E 023°05'0 0.0
2017-Oct-13 05:31N 37°55' E 023°05'0 0.0
2017-Oct-13 05:00N 37°55' E 023°05'0 0.0
2017-Oct-13 04:30N 37°55' E 023°05'0 0.0
2017-Oct-13 04:00N 37°55' E 023°05'0 0.0
2017-Oct-13 03:30N 37°55' E 023°05'0 0.0
2017-Oct-13 03:00N 37°55' E 023°05'0 0.0
2017-Oct-13 02:30N 37°55' E 023°05'0 0.0
2017-Oct-13 02:00N 37°55' E 023°05'0 0.0
2017-Oct-13 01:30N 37°55' E 023°05'0 0.0
2017-Oct-13 01:00N 37°55' E 023°05'0 0.0
2017-Oct-13 00:30N 37°55' E 023°05'0 0.0
2017-Oct-13 00:00N 37°55' E 023°05'0 0.0
2017-Oct-12 23:30N 37°55' E 023°05'0 0.0
2017-Oct-12 23:00N 37°55' E 023°05'0 0.0
2017-Oct-12 22:30N 37°55' E 023°05'1 1.6
2017-Oct-12 22:00N 37°55' E 023°06'4 8.2
2017-Oct-12 21:30N 37°54' E 023°11'4 8.6
2017-Oct-12 21:00N 37°53' E 023°16'4 8.9
2017-Oct-12 20:31N 37°52' E 023°22'4 8.9
2017-Oct-12 20:00N 37°51' E 023°27'4 7.9
2017-Oct-12 19:30N 37°51' E 023°32'4 8.9
2017-Oct-12 19:01N 37°55' E 023°34'2 4.8
2017-Oct-12 18:30N 37°58' E 023°34'0 0.0
2017-Oct-12 18:00N 37°58' E 023°34'0 0.0
2017-Oct-12 17:30N 37°58' E 023°34'0 0.0
2017-Oct-12 17:00N 37°58' E 023°34'0 0.0
2017-Oct-12 16:30N 37°58' E 023°34'0 0.0
2017-Oct-12 16:00N 37°58' E 023°34'0 0.0
2017-Oct-12 15:30N 37°58' E 023°34'  

Dump ship's entire track history